createdAt,value
2023-01-09T00:01:41.357Z,99181.28
2023-01-09T00:04:12.609Z,99187.38
2023-01-09T00:06:40.346Z,99186.63
2023-01-09T00:09:07.648Z,99186.38
2023-01-09T00:11:34.604Z,99186.47
2023-01-09T00:14:01.594Z,99178.78
2023-01-09T00:16:28.755Z,99174.88
2023-01-09T00:19:00.400Z,99199.78
2023-01-09T00:21:27.510Z,99187.31
2023-01-09T00:23:55.247Z,99206.47
2023-01-09T00:26:22.641Z,99192.56
2023-01-09T00:28:54.478Z,99198.38
2023-01-09T00:31:22.278Z,99196.88
2023-01-09T00:34:00.777Z,99190.13
2023-01-09T00:36:28.550Z,99198.97
2023-01-09T00:38:55.902Z,99182.47
2023-01-09T00:41:58.154Z,99201.16
2023-01-09T00:44:42.665Z,99200.09
2023-01-09T00:47:15.593Z,99197.06
2023-01-09T00:49:43.866Z,99179.28
2023-01-09T00:52:12.661Z,99180.03
2023-01-09T00:54:40.844Z,99177.63
2023-01-09T00:57:10.057Z,99182.25
2023-01-09T00:59:37.096Z,99173.44
2023-01-09T01:02:04.227Z,99169.38
2023-01-09T01:04:49.832Z,99173.16
2023-01-09T01:07:35.205Z,99175.59
2023-01-09T01:10:02.439Z,99177.88
2023-01-09T01:12:29.434Z,99178.03
2023-01-09T01:14:56.369Z,99171.88
2023-01-09T01:17:23.476Z,99166.19
2023-01-09T01:19:50.465Z,99172.50
2023-01-09T01:22:17.455Z,99176.88
2023-01-09T01:24:44.447Z,99167.53
2023-01-09T01:27:11.388Z,99185.66
2023-01-09T01:29:38.380Z,99175.72
2023-01-09T01:32:05.474Z,99172.47
2023-01-09T01:34:32.548Z,99176.13
2023-01-09T01:36:59.584Z,99180.22
2023-01-09T01:39:26.565Z,99176.63
2023-01-09T01:41:53.529Z,99184.78
2023-01-09T01:45:04.307Z,99175.28
2023-01-09T01:47:55.630Z,99168.72
2023-01-09T01:50:47.380Z,99177.75
2023-01-09T01:53:39.880Z,99171.09
2023-01-09T01:56:27.722Z,99176.38
2023-01-09T01:59:24.985Z,99172.06
2023-01-09T02:01:56.924Z,99168.78
2023-01-09T02:04:24.123Z,99172.16
2023-01-09T02:06:54.138Z,99163.59
2023-01-09T02:09:22.967Z,99159.81
2023-01-09T02:11:56.714Z,99163.06
2023-01-09T02:14:28.183Z,99164.25
2023-01-09T02:17:26.398Z,99169.81
2023-01-09T02:20:26.573Z,99163.38
2023-01-09T02:23:43.320Z,99157.78
2023-01-09T02:26:47.468Z,99152.25
2023-01-09T02:30:16.362Z,99154.31
2023-01-09T02:33:17.949Z,99153.75
2023-01-09T02:36:09.509Z,99149.75
2023-01-09T02:39:02.281Z,99152.81
2023-01-09T02:42:04.079Z,99141.09
2023-01-09T02:44:34.473Z,99143.25
2023-01-09T02:47:07.558Z,99141.53
2023-01-09T02:49:38.353Z,99139.97
2023-01-09T02:52:27.171Z,99141.09
2023-01-09T02:55:10.775Z,99137.22
2023-01-09T02:57:53.204Z,99128.75
2023-01-09T03:00:50.303Z,99129.84
2023-01-09T03:04:09.570Z,99115.75
2023-01-09T03:06:47.359Z,99118.03
2023-01-09T03:09:20.418Z,99123.03
2023-01-09T03:11:55.950Z,99122.50
2023-01-09T03:14:26.225Z,99119.34
2023-01-09T03:17:02.845Z,99118.63
2023-01-09T03:19:32.184Z,99115.78
2023-01-09T03:21:59.513Z,99129.81
2023-01-09T03:24:29.468Z,99125.66
2023-01-09T03:26:56.478Z,99125.25
2023-01-09T03:29:23.463Z,99116.34
2023-01-09T03:31:51.504Z,99117.50
2023-01-09T03:34:18.592Z,99114.16
2023-01-09T03:36:45.564Z,99111.53
2023-01-09T03:39:12.524Z,99105.66
2023-01-09T03:41:39.618Z,99124.13
2023-01-09T03:44:15.898Z,99125.66
2023-01-09T03:46:42.869Z,99128.34
2023-01-09T03:49:09.812Z,99126.22
2023-01-09T03:51:36.898Z,99133.75
2023-01-09T03:54:03.901Z,99133.81
2023-01-09T03:56:30.856Z,99123.22
2023-01-09T03:58:57.916Z,99125.69
2023-01-09T04:01:24.983Z,99134.44
2023-01-09T04:03:53.085Z,99124.16
2023-01-09T04:06:20.129Z,99133.28
2023-01-09T04:08:47.108Z,99133.44
2023-01-09T04:11:14.282Z,99132.13
2023-01-09T04:13:41.301Z,99121.78
2023-01-09T04:16:08.501Z,99120.84
2023-01-09T04:18:36.090Z,99131.25
2023-01-09T04:21:06.022Z,99138.13
2023-01-09T04:23:33.000Z,99138.09
2023-01-09T04:25:59.930Z,99135.91
2023-01-09T04:28:26.879Z,99135.38
2023-01-09T04:30:53.821Z,99131.81
2023-01-09T04:33:20.780Z,99127.97
2023-01-09T04:35:47.956Z,99128.44
2023-01-09T04:38:14.891Z,99145.38
2023-01-09T04:40:41.882Z,99151.38
2023-01-09T04:43:08.776Z,99145.53
2023-01-09T04:45:35.779Z,99150.34
2023-01-09T04:48:02.787Z,99152.44
2023-01-09T04:50:31.334Z,99151.16
2023-01-09T04:52:58.609Z,99152.91
2023-01-09T04:55:25.541Z,99155.03
2023-01-09T04:57:52.470Z,99161.13
2023-01-09T05:00:19.824Z,99162.91
2023-01-09T05:02:46.872Z,99163.25
2023-01-09T05:05:13.877Z,99168.19
2023-01-09T05:07:40.904Z,99179.50
2023-01-09T05:10:10.121Z,99184.97
2023-01-09T05:12:37.412Z,99190.19
2023-01-09T05:15:06.278Z,99205.63
2023-01-09T05:17:33.468Z,99206.47
2023-01-09T05:20:01.108Z,99217.81
2023-01-09T05:22:28.746Z,99220.91
2023-01-09T05:24:55.845Z,99229.13
2023-01-09T05:27:22.877Z,99227.81
2023-01-09T05:29:49.851Z,99230.72
2023-01-09T05:32:39.755Z,99235.66
2023-01-09T05:35:07.725Z,99234.13
2023-01-09T05:37:34.807Z,99238.78
2023-01-09T05:40:01.802Z,99233.66
2023-01-09T05:42:28.743Z,99231.59
2023-01-09T05:44:55.672Z,99246.13
2023-01-09T05:47:22.662Z,99242.66
2023-01-09T05:49:49.661Z,99248.84
2023-01-09T05:52:16.630Z,99259.13
2023-01-09T05:54:43.619Z,99273.94
2023-01-09T05:57:10.564Z,99278.75
2023-01-09T05:59:37.567Z,99283.28
2023-01-09T06:02:04.543Z,99281.50
2023-01-09T06:04:31.545Z,99274.97
2023-01-09T06:06:58.588Z,99292.88
2023-01-09T06:09:25.656Z,99280.50
2023-01-09T06:11:54.891Z,99281.94
2023-01-09T06:14:22.071Z,99296.41
2023-01-09T06:16:49.169Z,99301.38
2023-01-09T06:19:16.400Z,99305.84
2023-01-09T06:21:43.450Z,99302.81
2023-01-09T06:24:10.457Z,99306.09
2023-01-09T06:26:37.492Z,99318.94
2023-01-09T06:29:04.602Z,99318.66
2023-01-09T06:31:31.727Z,99320.59
2023-01-09T06:33:58.687Z,99328.03
2023-01-09T06:36:25.777Z,99332.28
2023-01-09T06:38:52.719Z,99341.00
2023-01-09T06:41:19.648Z,99347.78
2023-01-09T06:43:46.620Z,99343.69
2023-01-09T06:46:13.610Z,99346.53
2023-01-09T06:48:40.580Z,99368.75
2023-01-09T06:51:07.742Z,99359.00
2023-01-09T06:53:35.195Z,99352.88
2023-01-09T06:56:02.970Z,99350.53
2023-01-09T06:58:29.957Z,99364.44
2023-01-09T07:00:59.435Z,99374.88
2023-01-09T07:03:26.426Z,99382.22
2023-01-09T07:05:53.633Z,99383.72
2023-01-09T07:08:20.675Z,99383.69
2023-01-09T07:10:47.714Z,99389.94
2023-01-09T07:13:14.688Z,99388.13
2023-01-09T07:15:41.673Z,99391.91
2023-01-09T07:18:08.664Z,99399.97
2023-01-09T07:20:35.764Z,99394.56
2023-01-09T07:23:02.745Z,99404.06
2023-01-09T07:25:29.731Z,99408.00
2023-01-09T07:27:56.644Z,99414.56
2023-01-09T07:30:23.666Z,99414.28
2023-01-09T07:32:50.650Z,99420.09
2023-01-09T07:35:17.623Z,99422.34
2023-01-09T07:37:44.575Z,99430.75
2023-01-09T07:40:12.232Z,99432.19
2023-01-09T07:42:39.241Z,99434.97
2023-01-09T07:45:07.135Z,99440.78
2023-01-09T07:47:34.108Z,99443.75
2023-01-09T07:50:02.106Z,99451.63
2023-01-09T07:52:29.035Z,99448.88
2023-01-09T07:54:55.971Z,99460.06
2023-01-09T07:57:23.100Z,99471.84
2023-01-09T07:59:50.104Z,99467.81
2023-01-09T08:02:18.171Z,99480.59
2023-01-09T08:04:45.210Z,99475.09
2023-01-09T08:07:12.283Z,99480.63
2023-01-09T08:09:39.432Z,99482.19
2023-01-09T08:12:06.433Z,99484.38
2023-01-09T08:14:33.416Z,99486.88
2023-01-09T08:17:00.421Z,99490.91
2023-01-09T08:19:27.391Z,99507.97
2023-01-09T08:21:54.312Z,99495.94
2023-01-09T08:24:21.403Z,99519.41
2023-01-09T08:26:48.357Z,99514.25
2023-01-09T08:29:15.355Z,99519.75
2023-01-09T08:31:42.448Z,99528.25
2023-01-09T08:34:09.535Z,99533.59
2023-01-09T08:36:36.595Z,99538.06
2023-01-09T08:39:03.750Z,99540.66
2023-01-09T08:41:49.109Z,99535.19
2023-01-09T08:44:34.622Z,99551.22
2023-01-09T08:47:07.421Z,99559.28
2023-01-09T08:49:38.992Z,99570.28
2023-01-09T08:52:07.492Z,99579.38
2023-01-09T08:54:36.967Z,99578.63
2023-01-09T08:57:04.070Z,99579.59
2023-01-09T08:59:31.141Z,99581.63
2023-01-09T09:01:58.564Z,99584.03
2023-01-09T09:04:26.190Z,99590.38
2023-01-09T09:06:53.151Z,99596.63
2023-01-09T09:09:20.227Z,99595.66
2023-01-09T09:11:50.440Z,99603.22
2023-01-09T09:14:35.736Z,99607.00
2023-01-09T09:17:02.782Z,99623.94
2023-01-09T09:19:29.697Z,99618.50
2023-01-09T09:21:56.669Z,99610.81
2023-01-09T09:24:23.597Z,99619.56
2023-01-09T09:26:50.558Z,99622.47
2023-01-09T09:29:17.500Z,99632.19
2023-01-09T09:31:44.496Z,99636.22
2023-01-09T09:34:12.912Z,99641.94
2023-01-09T09:36:39.885Z,99645.22
2023-01-09T09:39:08.433Z,99658.44
2023-01-09T09:42:12.030Z,99648.63
2023-01-09T09:44:54.516Z,99664.50
2023-01-09T09:47:43.345Z,99673.06
2023-01-09T09:50:27.739Z,99671.59
2023-01-09T09:53:13.591Z,99687.41
2023-01-09T09:55:42.237Z,99693.41
2023-01-09T09:58:23.311Z,99706.31
2023-01-09T10:00:51.168Z,99711.97
2023-01-09T10:03:44.998Z,99720.19
2023-01-09T10:06:53.034Z,99728.84
2023-01-09T10:09:51.989Z,99729.25
2023-01-09T10:12:44.644Z,99732.25
2023-01-09T10:15:19.368Z,99739.06
2023-01-09T10:18:07.392Z,99746.63
2023-01-09T10:21:07.325Z,99748.09
2023-01-09T10:24:26.277Z,99754.97
2023-01-09T10:26:54.150Z,99757.56
2023-01-09T10:29:51.469Z,99761.47
2023-01-09T10:32:52.540Z,99770.59
2023-01-09T10:35:48.432Z,99767.25
2023-01-09T10:38:24.655Z,99769.19
2023-01-09T10:41:38.717Z,99769.63
2023-01-09T10:44:41.135Z,99770.13
2023-01-09T10:47:35.902Z,99772.13
2023-01-09T10:50:25.214Z,99776.44
2023-01-09T10:52:55.005Z,99764.03
2023-01-09T10:55:39.813Z,99781.00
2023-01-09T10:58:14.187Z,99776.75
2023-01-09T11:00:42.240Z,99778.03
2023-01-09T11:03:14.990Z,99783.56
2023-01-09T11:05:43.108Z,99772.13
2023-01-09T11:08:11.676Z,99778.53
2023-01-09T11:10:57.542Z,99781.19
2023-01-09T11:13:31.912Z,99785.41
2023-01-09T11:16:19.017Z,99774.81
2023-01-09T11:18:59.293Z,99790.09
2023-01-09T11:21:42.044Z,99780.28
2023-01-09T11:24:21.523Z,99781.72
2023-01-09T11:26:52.876Z,99783.09
2023-01-09T11:29:27.471Z,99794.50
2023-01-09T11:32:00.486Z,99797.09
2023-01-09T11:34:36.647Z,99797.66
2023-01-09T11:37:21.326Z,99806.41
2023-01-09T11:39:48.305Z,99799.97
2023-01-09T11:42:44.680Z,99800.38
2023-01-09T11:45:31.011Z,99813.47
2023-01-09T11:47:58.936Z,99809.41
2023-01-09T11:50:29.184Z,99822.22
2023-01-09T11:53:19.049Z,99819.56
2023-01-09T11:55:56.861Z,99808.66
2023-01-09T11:58:24.127Z,99814.81
2023-01-09T12:01:36.166Z,99815.19
2023-01-09T12:04:46.957Z,99811.19
2023-01-09T12:07:41.637Z,99807.31
2023-01-09T12:10:31.793Z,99820.94
2023-01-09T12:13:23.521Z,99828.38
2023-01-09T12:16:21.152Z,99823.38
2023-01-09T12:19:55.959Z,99818.47
2023-01-09T12:23:00.611Z,99820.56
2023-01-09T12:25:54.414Z,99821.53
2023-01-09T12:28:55.397Z,99822.88
2023-01-09T12:31:28.077Z,99826.19
2023-01-09T12:34:28.038Z,99829.41
2023-01-09T12:37:13.155Z,99831.06
2023-01-09T12:39:51.511Z,99829.50
2023-01-09T12:42:34.209Z,99828.28
2023-01-09T12:45:24.092Z,99837.56
2023-01-09T12:47:52.723Z,99841.63
2023-01-09T12:50:39.372Z,99847.47
2023-01-09T12:53:23.298Z,99840.50
2023-01-09T12:56:00.752Z,99829.53
2023-01-09T12:58:49.781Z,99840.47
2023-01-09T13:01:44.945Z,99846.53
2023-01-09T13:04:20.163Z,99836.41
2023-01-09T13:07:23.010Z,99857.09
2023-01-09T13:10:33.214Z,99839.97
2023-01-09T13:13:08.113Z,99852.25
2023-01-09T13:15:58.917Z,99847.34
2023-01-09T13:18:42.515Z,99858.81
2023-01-09T13:21:12.173Z,99856.94
2023-01-09T13:24:01.964Z,99861.25
2023-01-09T13:26:30.130Z,99863.47
2023-01-09T13:29:19.166Z,99861.03
2023-01-09T13:32:11.788Z,99867.34
2023-01-09T13:34:39.496Z,99881.66
2023-01-09T13:37:28.148Z,99881.13
2023-01-09T13:40:17.090Z,99884.47
2023-01-09T13:42:47.119Z,99899.19
2023-01-09T13:45:27.208Z,99892.75
2023-01-09T13:48:14.492Z,99927.50
2023-01-09T13:50:42.567Z,99918.97
2023-01-09T13:53:18.669Z,99927.78
2023-01-09T13:55:58.032Z,99926.94
2023-01-09T13:58:31.887Z,99927.97
2023-01-09T14:01:27.439Z,99944.00
2023-01-09T14:04:14.671Z,99960.13
2023-01-09T14:06:44.940Z,99967.06
2023-01-09T14:09:21.312Z,99969.41
2023-01-09T14:11:49.386Z,99974.53
2023-01-09T14:14:45.435Z,99973.19
2023-01-09T14:17:30.413Z,99970.06
2023-01-09T14:20:00.741Z,99981.03
2023-01-09T14:22:42.356Z,99987.53
2023-01-09T14:25:25.293Z,99985.19
2023-01-09T14:27:54.965Z,99995.16
2023-01-09T14:30:27.668Z,100013.63
2023-01-09T14:33:25.936Z,100017.09
2023-01-09T14:36:21.735Z,100026.16
2023-01-09T14:38:52.990Z,100022.94
2023-01-09T14:42:06.424Z,100036.94
2023-01-09T14:45:00.732Z,100031.69
2023-01-09T14:47:30.705Z,100039.47
2023-01-09T14:50:11.567Z,100043.03
2023-01-09T14:52:48.475Z,100049.75
2023-01-09T14:55:46.331Z,100068.03
2023-01-09T14:58:33.036Z,100069.66
2023-01-09T15:01:12.003Z,100069.50
2023-01-09T15:03:51.575Z,100091.44
2023-01-09T15:06:31.369Z,100098.56
2023-01-09T15:09:08.914Z,100116.06
2023-01-09T15:11:39.900Z,100118.09
2023-01-09T15:14:10.218Z,100126.41
2023-01-09T15:16:37.422Z,100134.19
2023-01-09T15:19:07.985Z,100146.38
2023-01-09T15:21:34.971Z,100142.69
2023-01-09T15:24:28.859Z,100151.75
2023-01-09T15:27:11.448Z,100153.97
2023-01-09T15:29:38.445Z,100165.53
2023-01-09T15:32:26.462Z,100167.44
2023-01-09T15:34:55.767Z,100173.56
2023-01-09T15:37:34.496Z,100188.91
2023-01-09T15:40:04.573Z,100195.38
2023-01-09T15:42:57.590Z,100191.31
2023-01-09T15:45:42.826Z,100192.00
2023-01-09T15:48:18.555Z,100198.22
2023-01-09T15:50:49.326Z,100210.53
2023-01-09T15:53:22.546Z,100211.13
2023-01-09T15:56:33.484Z,100224.59
2023-01-09T15:59:01.301Z,100226.47
2023-01-09T16:01:31.797Z,100238.00
2023-01-09T16:04:05.091Z,100225.50
2023-01-09T16:06:37.221Z,100240.34
2023-01-09T16:09:08.251Z,100238.81
2023-01-09T16:11:39.017Z,100252.38
2023-01-09T16:14:34.700Z,100246.19
2023-01-09T16:17:16.008Z,100255.34
2023-01-09T16:19:50.229Z,100269.09
2023-01-09T16:22:29.877Z,100279.28
2023-01-09T16:25:28.152Z,100288.63
2023-01-09T16:28:21.075Z,100304.41
2023-01-09T16:31:27.503Z,100307.19
2023-01-09T16:34:14.821Z,100322.59
2023-01-09T16:36:41.833Z,100334.66
2023-01-09T16:39:15.111Z,100340.16
2023-01-09T16:42:02.091Z,100352.13
2023-01-09T16:44:29.055Z,100368.41
2023-01-09T16:46:56.210Z,100371.38
2023-01-09T16:49:26.895Z,100358.16
2023-01-09T16:51:55.250Z,100364.75
2023-01-09T16:54:22.534Z,100369.81
2023-01-09T16:56:52.692Z,100369.19
2023-01-09T16:59:26.281Z,100373.78
2023-01-09T17:01:54.814Z,100389.72
2023-01-09T17:04:23.941Z,100389.81
2023-01-09T17:06:51.654Z,100405.28
2023-01-09T17:09:24.078Z,100397.25
2023-01-09T17:11:52.239Z,100394.09
2023-01-09T17:14:19.212Z,100397.81
2023-01-09T17:16:46.822Z,100403.63
2023-01-09T17:19:19.193Z,100419.94
2023-01-09T17:21:47.041Z,100422.25
2023-01-09T17:24:33.042Z,100433.25
2023-01-09T17:27:19.451Z,100434.56
2023-01-09T17:29:46.608Z,100430.47
2023-01-09T17:32:16.050Z,100443.22
2023-01-09T17:34:43.710Z,100441.16
2023-01-09T17:37:19.548Z,100447.84
2023-01-09T17:39:46.800Z,100462.09
2023-01-09T17:42:13.818Z,100466.03
2023-01-09T17:44:40.805Z,100472.66
2023-01-09T17:47:15.544Z,100501.22
2023-01-09T17:49:42.615Z,100514.13
2023-01-09T17:52:09.658Z,100504.16
2023-01-09T17:54:36.646Z,100503.34
2023-01-09T17:57:03.878Z,100502.50
2023-01-09T17:59:31.302Z,100510.31
2023-01-09T18:01:58.277Z,100511.88
2023-01-09T18:04:25.366Z,100512.66
2023-01-09T18:06:54.604Z,100517.72
2023-01-09T18:09:21.588Z,100519.13
2023-01-09T18:11:48.589Z,100524.44
2023-01-09T18:14:17.089Z,100524.22
2023-01-09T18:16:45.383Z,100539.63
2023-01-09T18:19:12.684Z,100570.84
2023-01-09T18:21:39.670Z,100577.66
2023-01-09T18:24:07.386Z,100580.09
2023-01-09T18:26:34.369Z,100584.16
2023-01-09T18:29:02.045Z,100587.50
2023-01-09T18:31:30.437Z,100571.38
2023-01-09T18:34:02.411Z,100593.63
2023-01-09T18:36:30.193Z,100594.59
2023-01-09T18:39:00.523Z,100609.13
2023-01-09T18:41:28.573Z,100606.25
2023-01-09T18:43:59.149Z,100613.16
2023-01-09T18:46:30.637Z,100627.59
2023-01-09T18:49:03.616Z,100628.19
2023-01-09T18:51:34.103Z,100636.97
2023-01-09T18:54:01.113Z,100638.44
2023-01-09T18:56:28.346Z,100651.78
2023-01-09T18:58:57.551Z,100653.75
2023-01-09T19:01:29.071Z,100667.66
2023-01-09T19:03:57.702Z,100670.41
2023-01-09T19:06:25.662Z,100694.03
2023-01-09T19:08:52.993Z,100700.66
2023-01-09T19:11:19.961Z,100702.59
2023-01-09T19:13:47.249Z,100698.19
2023-01-09T19:16:14.564Z,100697.91
2023-01-09T19:18:43.087Z,100708.13
2023-01-09T19:21:22.195Z,100708.38
2023-01-09T19:23:49.803Z,100716.16
2023-01-09T19:26:26.177Z,100724.97
2023-01-09T19:28:57.946Z,100730.91
2023-01-09T19:31:28.450Z,100726.38
2023-01-09T19:33:56.611Z,100734.44
2023-01-09T19:36:23.698Z,100744.66
2023-01-09T19:38:59.965Z,100745.91
2023-01-09T19:41:28.610Z,100750.47
2023-01-09T19:43:55.809Z,100741.47
2023-01-09T19:46:25.085Z,100763.22
2023-01-09T19:48:53.053Z,100771.69
2023-01-09T19:51:21.968Z,100770.59
2023-01-09T19:53:55.466Z,100777.19
2023-01-09T19:56:24.475Z,100777.50
2023-01-09T19:59:01.128Z,100778.56
2023-01-09T20:01:35.387Z,100777.38
2023-01-09T20:04:10.090Z,100784.06
2023-01-09T20:06:42.247Z,100783.44
2023-01-09T20:09:12.151Z,100782.47
2023-01-09T20:11:41.364Z,100779.25
2023-01-09T20:14:13.793Z,100783.31
2023-01-09T20:16:41.908Z,100790.38
2023-01-09T20:19:12.524Z,100798.38
2023-01-09T20:21:39.776Z,100809.75
2023-01-09T20:24:08.760Z,100804.63
2023-01-09T20:26:37.401Z,100800.13
2023-01-09T20:29:04.791Z,100808.94
2023-01-09T20:31:32.985Z,100807.34
2023-01-09T20:34:00.336Z,100816.66
2023-01-09T20:36:30.373Z,100825.66
2023-01-09T20:39:00.322Z,100832.78
2023-01-09T20:41:29.423Z,100833.63
2023-01-09T20:44:00.839Z,100842.41
2023-01-09T20:46:33.752Z,100848.56
2023-01-09T20:49:06.559Z,100837.50
2023-01-09T20:51:35.831Z,100845.41
2023-01-09T20:54:03.727Z,100856.91
2023-01-09T20:56:31.859Z,100860.00
2023-01-09T20:58:59.985Z,100857.16
2023-01-09T21:01:28.109Z,100857.50
2023-01-09T21:03:56.722Z,100865.09
2023-01-09T21:06:25.684Z,100867.09
2023-01-09T21:08:53.173Z,100864.88
2023-01-09T21:11:21.891Z,100868.78
2023-01-09T21:13:49.619Z,100879.00
2023-01-09T21:16:21.745Z,100875.38
2023-01-09T21:18:49.498Z,100887.78
2023-01-09T21:21:27.324Z,100882.88
2023-01-09T21:23:58.048Z,100891.66
2023-01-09T21:26:28.975Z,100888.28
2023-01-09T21:28:58.343Z,100901.59
2023-01-09T21:31:33.615Z,100904.53
2023-01-09T21:34:07.095Z,100918.63
2023-01-09T21:36:38.117Z,100929.63
2023-01-09T21:39:08.014Z,100935.59
2023-01-09T21:41:54.249Z,100935.38
2023-01-09T21:44:39.709Z,100934.91
2023-01-09T21:47:06.674Z,100932.06
2023-01-09T21:49:35.203Z,100947.97
2023-01-09T21:52:04.595Z,100958.03
2023-01-09T21:54:32.246Z,100957.41
2023-01-09T21:57:04.086Z,100959.31
2023-01-09T21:59:31.231Z,100967.34
2023-01-09T22:01:58.770Z,100957.63
2023-01-09T22:04:28.793Z,100967.00
2023-01-09T22:06:56.380Z,100984.91
2023-01-09T22:09:23.371Z,100990.72
2023-01-09T22:11:50.430Z,100996.44
2023-01-09T22:14:19.169Z,101010.09
2023-01-09T22:16:47.042Z,101019.28
2023-01-09T22:19:17.985Z,101022.06
2023-01-09T22:21:45.655Z,101029.56
2023-01-09T22:24:18.220Z,101025.38
2023-01-09T22:26:45.760Z,101024.50
2023-01-09T22:29:12.821Z,101034.72
2023-01-09T22:31:40.647Z,101040.09
2023-01-09T22:34:19.025Z,101040.19
2023-01-09T22:36:46.915Z,101051.97
2023-01-09T22:39:16.657Z,101062.97
2023-01-09T22:41:44.039Z,101067.38
2023-01-09T22:44:12.695Z,101064.84
2023-01-09T22:46:40.058Z,101071.88
2023-01-09T22:49:07.108Z,101082.91
2023-01-09T22:51:34.208Z,101085.06
2023-01-09T22:54:01.460Z,101084.81
2023-01-09T22:56:28.793Z,101094.94
2023-01-09T22:58:59.051Z,101085.03
2023-01-09T23:01:25.985Z,101103.56
2023-01-09T23:03:53.298Z,101110.22
2023-01-09T23:06:22.908Z,101116.06
2023-01-09T23:08:51.943Z,101127.34
2023-01-09T23:11:44.881Z,101132.41
2023-01-09T23:14:12.688Z,101134.97
2023-01-09T23:16:40.822Z,101148.78
2023-01-09T23:19:14.415Z,101155.25
2023-01-09T23:21:42.259Z,101159.00
2023-01-09T23:24:09.416Z,101160.00
2023-01-09T23:26:38.772Z,101167.25
2023-01-09T23:29:08.769Z,101164.53
2023-01-09T23:31:36.737Z,101158.59
2023-01-09T23:34:05.380Z,101169.53
2023-01-09T23:36:32.427Z,101174.56
2023-01-09T23:38:59.814Z,101190.75
2023-01-09T23:41:45.188Z,101183.25
2023-01-09T23:44:12.157Z,101188.50
2023-01-09T23:46:39.091Z,101205.28
2023-01-09T23:49:06.053Z,101203.31
2023-01-09T23:51:33.388Z,101212.63
2023-01-09T23:54:00.385Z,101213.00
2023-01-09T23:56:27.982Z,101204.44
2023-01-09T23:58:54.945Z,101202.66
